createdAt,value
2019-03-21T00:00:42.141Z,89.28
2019-03-21T00:01:42.242Z,89.53
2019-03-21T00:02:42.102Z,88.97
2019-03-21T00:03:42.124Z,89.11
2019-03-21T00:04:42.093Z,89.01
2019-03-21T00:05:42.162Z,89.32
2019-03-21T00:06:42.175Z,89.74
2019-03-21T00:07:42.044Z,89.53
2019-03-21T00:08:42.065Z,89.43
2019-03-21T00:09:42.027Z,89.43
2019-03-21T00:10:42.105Z,89.11
2019-03-21T00:11:42.022Z,89.22
2019-03-21T00:12:42.045Z,89.11
2019-03-21T00:13:41.976Z,89.15
2019-03-21T00:14:42.077Z,89.47
2019-03-21T00:15:41.957Z,89.36
2019-03-21T00:16:42.047Z,89.43
2019-03-21T00:17:41.928Z,89.68
2019-03-21T00:18:41.940Z,89.99
2019-03-21T00:19:41.909Z,89.99
2019-03-21T00:20:41.980Z,89.68
2019-03-21T00:21:41.900Z,89.99
2019-03-21T00:22:41.906Z,89.99
2019-03-21T00:23:41.886Z,90.09
2019-03-21T00:24:41.852Z,90.41
2019-03-21T00:25:41.911Z,90.20
2019-03-21T00:26:41.842Z,90.20
2019-03-21T00:27:41.812Z,89.78
2019-03-21T00:28:41.814Z,89.99
2019-03-21T00:29:42.813Z,89.89
2019-03-21T00:30:41.784Z,90.41
2019-03-21T00:31:41.874Z,90.41
2019-03-21T00:32:41.764Z,90.20
2019-03-21T00:33:41.755Z,90.31
2019-03-21T00:34:41.836Z,90.83
2019-03-21T00:35:41.738Z,90.72
2019-03-21T00:36:42.846Z,91.14
2019-03-21T00:37:41.707Z,91.35
2019-03-21T00:38:41.697Z,91.18
2019-03-21T00:39:41.687Z,90.66
2019-03-21T00:40:43.887Z,90.93
2019-03-21T00:41:41.680Z,90.87
2019-03-21T00:42:41.672Z,91.25
2019-03-21T00:43:41.640Z,91.39
2019-03-21T00:44:41.710Z,91.28
2019-03-21T00:45:41.604Z,91.03
2019-03-21T00:46:42.710Z,91.18
2019-03-21T00:47:41.601Z,91.14
2019-03-21T00:48:41.681Z,91.28
2019-03-21T00:49:41.562Z,91.03
2019-03-21T00:50:41.623Z,90.87
2019-03-21T00:51:41.552Z,90.20
2019-03-21T00:52:43.605Z,90.31
2019-03-21T00:53:41.526Z,90.34
2019-03-21T00:54:41.503Z,90.24
2019-03-21T00:55:41.493Z,90.77
2019-03-21T00:56:41.564Z,90.87
2019-03-21T00:57:41.476Z,90.66
2019-03-21T00:58:41.585Z,90.97
2019-03-21T00:59:41.525Z,91.08
2019-03-21T01:00:41.436Z,90.87
2019-03-21T01:01:41.507Z,90.56
2019-03-21T01:02:41.417Z,91.02
2019-03-21T01:03:41.501Z,90.56
2019-03-21T01:04:41.398Z,90.66
2019-03-21T01:05:41.429Z,91.18
2019-03-21T01:06:41.389Z,91.02
2019-03-21T01:07:41.469Z,91.33
2019-03-21T01:08:41.369Z,91.28
2019-03-21T01:09:41.421Z,91.54
2019-03-21T01:10:41.370Z,91.18
2019-03-21T01:11:41.341Z,91.96
2019-03-21T01:12:41.423Z,91.96
2019-03-21T01:13:41.302Z,92.16
2019-03-21T01:14:41.351Z,91.75
2019-03-21T01:15:41.282Z,91.64
2019-03-21T01:16:41.332Z,91.02
2019-03-21T01:17:41.253Z,91.22
2019-03-21T01:18:41.323Z,91.33
2019-03-21T01:19:41.221Z,91.22
2019-03-21T01:20:56.304Z,91.22
2019-03-21T01:21:41.225Z,91.12
2019-03-21T01:22:41.298Z,91.22
2019-03-21T01:23:41.234Z,91.12
2019-03-21T01:24:47.776Z,91.12
2019-03-21T01:25:41.169Z,91.22
2019-03-21T01:26:41.206Z,91.12
2019-03-21T01:27:41.133Z,91.12
2019-03-21T01:28:43.148Z,91.43
2019-03-21T01:29:41.108Z,91.02
2019-03-21T01:30:42.227Z,91.96
2019-03-21T01:31:41.108Z,91.96
2019-03-21T01:32:41.089Z,91.85
2019-03-21T01:33:41.139Z,92.16
2019-03-21T01:34:41.051Z,91.12
2019-03-21T01:35:42.100Z,91.02
2019-03-21T01:36:41.041Z,91.22
2019-03-21T01:37:41.021Z,91.22
2019-03-21T01:38:41.001Z,91.54
2019-03-21T01:39:41.041Z,91.02
2019-03-21T01:40:40.981Z,91.43
2019-03-21T01:41:41.022Z,91.22
2019-03-21T01:42:40.963Z,91.02
2019-03-21T01:43:40.943Z,91.54
2019-03-21T01:44:41.515Z,91.54
2019-03-21T01:45:40.924Z,92.00
2019-03-21T01:46:41.026Z,91.69
2019-03-21T01:47:40.915Z,91.27
2019-03-21T01:48:40.886Z,91.69
2019-03-21T01:49:40.876Z,91.89
2019-03-21T01:50:40.886Z,91.79
2019-03-21T01:51:40.867Z,91.58
2019-03-21T01:52:40.989Z,92.10
2019-03-21T01:53:40.837Z,92.10
2019-03-21T01:54:40.868Z,92.10
2019-03-21T01:55:40.819Z,91.69
2019-03-21T01:56:41.830Z,92.10
2019-03-21T01:57:40.809Z,91.75
2019-03-21T01:58:40.849Z,92.21
2019-03-21T01:59:40.771Z,92.10
2019-03-21T02:00:42.820Z,92.10
2019-03-21T02:01:40.751Z,91.89
2019-03-21T02:02:40.861Z,92.06
2019-03-21T02:03:40.731Z,92.06
2019-03-21T02:04:40.712Z,91.96
2019-03-21T02:05:40.702Z,91.85
2019-03-21T02:06:42.732Z,91.69
2019-03-21T02:07:40.693Z,91.79
2019-03-21T02:08:40.714Z,92.21
2019-03-21T02:09:40.654Z,92.10
2019-03-21T02:10:40.655Z,91.89
2019-03-21T02:11:40.625Z,91.89
2019-03-21T02:12:40.743Z,92.00
2019-03-21T02:13:40.609Z,91.89
2019-03-21T02:14:51.604Z,92.00
2019-03-21T02:15:41.576Z,91.89
2019-03-21T02:16:40.656Z,91.89
2019-03-21T02:17:40.570Z,91.89
2019-03-21T02:18:40.597Z,92.00
2019-03-21T02:19:40.538Z,91.79
2019-03-21T02:20:40.518Z,91.89
2019-03-21T02:21:40.508Z,91.79
2019-03-21T02:22:40.609Z,92.21
2019-03-21T02:23:40.490Z,92.10
2019-03-21T02:24:41.520Z,92.00
2019-03-21T02:25:40.489Z,92.10
2019-03-21T02:26:40.451Z,91.89
2019-03-21T02:27:40.561Z,91.89
2019-03-21T02:28:40.432Z,92.00
2019-03-21T02:29:40.442Z,92.52
2019-03-21T02:30:40.414Z,92.52
2019-03-21T02:31:40.394Z,92.21
2019-03-21T02:32:40.393Z,92.35
2019-03-21T02:33:40.425Z,92.10
2019-03-21T02:34:40.387Z,92.00
2019-03-21T02:35:41.375Z,92.04
2019-03-21T02:36:40.350Z,91.89
2019-03-21T02:37:42.389Z,92.00
2019-03-21T02:38:40.325Z,91.89
2019-03-21T02:39:40.440Z,91.94
2019-03-21T02:40:40.310Z,91.72
2019-03-21T02:41:40.368Z,92.14
2019-03-21T02:42:40.298Z,92.25
2019-03-21T02:43:40.298Z,92.14
2019-03-21T02:44:40.404Z,92.35
2019-03-21T02:45:40.349Z,92.35
2019-03-21T02:46:40.239Z,92.35
2019-03-21T02:47:40.231Z,93.19
2019-03-21T02:48:40.206Z,93.30
2019-03-21T02:49:48.800Z,93.19
2019-03-21T02:50:40.194Z,92.46
2019-03-21T02:51:41.263Z,92.46
2019-03-21T02:52:40.172Z,92.67
2019-03-21T02:53:40.173Z,92.04
2019-03-21T02:54:40.139Z,92.25
2019-03-21T02:55:40.213Z,92.35
2019-03-21T02:56:40.114Z,92.88
2019-03-21T02:57:40.184Z,92.67
2019-03-21T02:58:40.091Z,92.46
2019-03-21T02:59:40.185Z,92.77
2019-03-21T03:00:40.065Z,92.88
2019-03-21T03:01:40.117Z,92.88
2019-03-21T03:02:40.056Z,92.46
2019-03-21T03:03:40.041Z,92.19
2019-03-21T03:04:40.007Z,92.25
2019-03-21T03:05:40.100Z,92.25
2019-03-21T03:06:40.020Z,92.14
2019-03-21T03:07:41.086Z,92.19
2019-03-21T03:08:39.980Z,92.08
2019-03-21T03:09:40.059Z,91.98
2019-03-21T03:10:39.959Z,92.19
2019-03-21T03:11:39.990Z,92.29
2019-03-21T03:12:39.950Z,93.02
2019-03-21T03:13:39.931Z,92.77
2019-03-21T03:14:39.910Z,92.67
2019-03-21T03:15:41.008Z,93.19
2019-03-21T03:16:39.892Z,92.88
2019-03-21T03:17:40.982Z,93.19
2019-03-21T03:18:39.866Z,92.98
2019-03-21T03:19:39.842Z,93.34
2019-03-21T03:20:39.844Z,93.40
2019-03-21T03:21:39.884Z,93.19
2019-03-21T03:22:39.845Z,93.30
2019-03-21T03:23:40.837Z,93.40
2019-03-21T03:24:39.794Z,93.40
2019-03-21T03:25:39.786Z,93.40
2019-03-21T03:26:39.814Z,93.30
2019-03-21T03:27:39.766Z,93.30
2019-03-21T03:28:39.856Z,93.34
2019-03-21T03:29:39.737Z,92.67
2019-03-21T03:30:39.707Z,92.98
2019-03-21T03:31:39.719Z,93.34
2019-03-21T03:32:40.792Z,92.92
2019-03-21T03:33:39.688Z,93.24
2019-03-21T03:34:40.799Z,93.34
2019-03-21T03:35:39.659Z,93.40
2019-03-21T03:36:39.648Z,93.24
2019-03-21T03:37:40.730Z,93.13
2019-03-21T03:38:39.634Z,93.44
2019-03-21T03:39:39.701Z,93.02
2019-03-21T03:40:39.602Z,92.92
2019-03-21T03:41:39.590Z,93.44
2019-03-21T03:42:39.592Z,93.02
2019-03-21T03:43:41.614Z,93.44
2019-03-21T03:44:39.552Z,93.24
2019-03-21T03:45:39.603Z,93.24
2019-03-21T03:46:39.540Z,93.44
2019-03-21T03:47:39.583Z,93.34
2019-03-21T03:48:39.521Z,93.55
2019-03-21T03:49:39.577Z,93.44
2019-03-21T03:50:39.485Z,93.65
2019-03-21T03:51:39.506Z,93.65
2019-03-21T03:52:39.465Z,93.24
2019-03-21T03:53:42.186Z,93.34
2019-03-21T03:54:39.457Z,93.24
2019-03-21T03:55:39.487Z,93.27
2019-03-21T03:56:39.427Z,93.44
2019-03-21T03:57:39.417Z,93.24
2019-03-21T03:58:39.420Z,93.76
2019-03-21T03:59:39.459Z,93.65
2019-03-21T04:00:39.389Z,93.76
2019-03-21T04:01:40.428Z,93.34
2019-03-21T04:02:39.360Z,93.55
2019-03-21T04:03:39.383Z,93.76
2019-03-21T04:04:39.342Z,94.18
2019-03-21T04:05:39.371Z,93.76
2019-03-21T04:06:39.311Z,93.76
2019-03-21T04:07:39.401Z,93.87
2019-03-21T04:08:39.312Z,93.97
2019-03-21T04:09:39.342Z,93.76
2019-03-21T04:10:39.273Z,93.87
2019-03-21T04:11:39.273Z,93.97
2019-03-21T04:12:39.227Z,93.76
2019-03-21T04:13:39.246Z,94.07
2019-03-21T04:14:39.214Z,94.07
2019-03-21T04:15:51.664Z,93.76
2019-03-21T04:16:40.197Z,93.76
2019-03-21T04:17:39.285Z,93.44
2019-03-21T04:18:39.185Z,93.44
2019-03-21T04:19:39.158Z,93.76
2019-03-21T04:20:39.186Z,93.76
2019-03-21T04:21:39.140Z,93.55
2019-03-21T04:22:39.217Z,93.65
2019-03-21T04:23:39.139Z,93.65
2019-03-21T04:24:39.099Z,93.65
2019-03-21T04:25:39.122Z,93.97
2019-03-21T04:26:39.079Z,93.34
2019-03-21T04:27:40.180Z,93.65
2019-03-21T04:28:39.069Z,93.76
2019-03-21T04:29:39.041Z,93.49
2019-03-21T04:30:39.064Z,93.49
2019-03-21T04:31:39.020Z,93.38
2019-03-21T04:32:40.138Z,94.32
2019-03-21T04:33:39.023Z,94.32
2019-03-21T04:34:38.997Z,94.64
2019-03-21T04:35:38.982Z,94.54
2019-03-21T04:36:39.075Z,94.74
2019-03-21T04:37:39.091Z,94.32
2019-03-21T04:38:39.063Z,94.12
2019-03-21T04:39:38.948Z,94.74
2019-03-21T04:40:38.925Z,94.64
2019-03-21T04:41:39.023Z,93.91
2019-03-21T04:42:38.905Z,93.80
2019-03-21T04:43:39.006Z,93.70
2019-03-21T04:44:38.885Z,93.49
2019-03-21T04:45:38.881Z,93.38
2019-03-21T04:46:38.846Z,93.07
2019-03-21T04:47:38.907Z,93.43
2019-03-21T04:48:38.850Z,94.12
2019-03-21T04:49:38.857Z,94.43
2019-03-21T04:50:38.928Z,94.64
2019-03-21T04:51:38.789Z,94.12
2019-03-21T04:52:39.883Z,93.49
2019-03-21T04:53:38.791Z,93.53
2019-03-21T04:54:38.802Z,93.32
2019-03-21T04:55:38.743Z,93.53
2019-03-21T04:56:38.752Z,93.21
2019-03-21T04:57:38.801Z,93.53
2019-03-21T04:58:38.736Z,93.43
2019-03-21T04:59:45.705Z,94.26
2019-03-21T05:00:38.693Z,94.16
2019-03-21T05:01:38.709Z,93.95
2019-03-21T05:02:38.748Z,93.63
2019-03-21T05:03:38.694Z,94.26
2019-03-21T05:04:38.677Z,94.58
2019-03-21T05:05:38.634Z,94.68
2019-03-21T05:06:38.627Z,94.26
2019-03-21T05:07:38.616Z,94.12
2019-03-21T05:08:42.796Z,94.22
2019-03-21T05:09:38.586Z,94.26
2019-03-21T05:10:39.624Z,94.85
2019-03-21T05:11:38.571Z,94.64
2019-03-21T05:12:38.627Z,94.54
2019-03-21T05:13:38.568Z,94.54
2019-03-21T05:14:38.570Z,94.74
2019-03-21T05:15:38.528Z,94.74
2019-03-21T05:16:38.598Z,94.32
2019-03-21T05:17:38.508Z,94.01
2019-03-21T05:18:38.589Z,94.64
2019-03-21T05:19:38.490Z,94.64
2019-03-21T05:20:38.579Z,94.43
2019-03-21T05:21:38.460Z,94.47
2019-03-21T05:22:38.450Z,94.47
2019-03-21T05:23:38.450Z,94.32
2019-03-21T05:24:39.471Z,94.85
2019-03-21T05:25:38.401Z,95.06
2019-03-21T05:26:38.483Z,94.68
2019-03-21T05:27:38.393Z,94.79
2019-03-21T05:28:38.463Z,95.00
2019-03-21T05:29:38.375Z,95.00
2019-03-21T05:30:38.454Z,94.95
2019-03-21T05:31:38.346Z,95.00
2019-03-21T05:32:38.386Z,94.68
2019-03-21T05:33:38.336Z,94.47
2019-03-21T05:34:38.428Z,94.54
2019-03-21T05:35:38.305Z,94.26
2019-03-21T05:36:38.357Z,93.95
2019-03-21T05:37:38.278Z,93.95
2019-03-21T05:38:38.277Z,93.91
2019-03-21T05:39:38.367Z,94.16
2019-03-21T05:40:38.238Z,94.32
2019-03-21T05:41:38.300Z,94.01
2019-03-21T05:42:38.218Z,94.32
2019-03-21T05:43:38.218Z,94.12
2019-03-21T05:44:38.189Z,94.74
2019-03-21T05:45:38.290Z,94.79
2019-03-21T05:46:38.170Z,94.74
2019-03-21T05:47:38.201Z,95.06
2019-03-21T05:48:38.161Z,94.95
2019-03-21T05:49:38.151Z,95.06
2019-03-21T05:50:38.212Z,94.85
2019-03-21T05:51:38.122Z,94.54
2019-03-21T05:52:38.153Z,94.64
2019-03-21T05:53:38.129Z,94.95
2019-03-21T05:54:38.094Z,94.95
2019-03-21T05:55:38.074Z,94.85
2019-03-21T05:56:38.224Z,94.74
2019-03-21T05:57:38.053Z,94.18
2019-03-21T05:58:45.839Z,94.38
2019-03-21T05:59:38.045Z,94.70
2019-03-21T06:00:38.085Z,94.70
2019-03-21T06:01:38.005Z,94.74
2019-03-21T06:02:39.046Z,94.81
2019-03-21T06:03:37.986Z,94.85
2019-03-21T06:04:38.009Z,94.60
2019-03-21T06:05:38.926Z,94.81
2019-03-21T06:06:37.997Z,94.70
2019-03-21T06:07:37.928Z,94.24
2019-03-21T06:08:38.028Z,94.70
2019-03-21T06:09:37.929Z,94.66
2019-03-21T06:10:37.899Z,94.56
2019-03-21T06:11:39.658Z,94.24
2019-03-21T06:12:37.902Z,94.34
2019-03-21T06:13:37.862Z,94.03
2019-03-21T06:14:38.900Z,94.66
2019-03-21T06:15:37.845Z,93.93
2019-03-21T06:16:38.025Z,93.82
2019-03-21T06:17:37.843Z,93.40
2019-03-21T06:18:37.814Z,93.40
2019-03-21T06:19:37.923Z,93.51
2019-03-21T06:20:37.782Z,93.30
2019-03-21T06:21:37.775Z,93.51
2019-03-21T06:22:37.883Z,93.51
2019-03-21T06:23:37.755Z,93.61
2019-03-21T06:24:38.785Z,93.30
2019-03-21T06:25:37.726Z,93.51
2019-03-21T06:26:37.715Z,93.82
2019-03-21T06:27:45.805Z,93.51
2019-03-21T06:28:37.696Z,93.40
2019-03-21T06:29:38.726Z,93.71
2019-03-21T06:30:37.687Z,93.36
2019-03-21T06:31:37.668Z,93.88
2019-03-21T06:32:37.658Z,93.57
2019-03-21T06:33:39.678Z,93.67
2019-03-21T06:34:37.660Z,93.36
2019-03-21T06:35:38.690Z,93.15
2019-03-21T06:36:37.619Z,93.26
2019-03-21T06:37:37.599Z,93.26
2019-03-21T06:38:39.623Z,93.04
2019-03-21T06:39:37.590Z,93.26
2019-03-21T06:40:37.600Z,92.94
2019-03-21T06:41:37.564Z,93.26
2019-03-21T06:42:39.007Z,93.32
2019-03-21T06:43:37.533Z,93.32
2019-03-21T06:44:39.562Z,92.90
2019-03-21T06:45:47.552Z,93.11
2019-03-21T06:46:48.934Z,93.01
2019-03-21T06:47:38.487Z,93.11
2019-03-21T06:48:37.555Z,93.11
2019-03-21T06:49:37.463Z,93.21
2019-03-21T06:50:38.504Z,93.11
2019-03-21T06:51:37.436Z,92.38
2019-03-21T06:52:37.515Z,92.16
2019-03-21T06:53:37.416Z,91.85
2019-03-21T06:54:39.437Z,91.96
2019-03-21T06:55:37.407Z,91.96
2019-03-21T06:56:37.497Z,92.06
2019-03-21T06:57:37.368Z,92.02
2019-03-21T06:58:37.357Z,92.23
2019-03-21T06:59:37.440Z,92.02
2019-03-21T07:00:37.338Z,92.23
2019-03-21T07:01:38.349Z,92.23
2019-03-21T07:02:37.309Z,92.40
2019-03-21T07:03:37.300Z,92.92
2019-03-21T07:04:37.300Z,92.92
2019-03-21T07:05:37.307Z,92.71
2019-03-21T07:06:37.281Z,93.13
2019-03-21T07:07:52.295Z,92.40
2019-03-21T07:08:37.256Z,93.02
2019-03-21T07:09:37.242Z,92.66
2019-03-21T07:10:37.253Z,92.56
2019-03-21T07:11:37.204Z,92.56
2019-03-21T07:12:38.303Z,91.94
2019-03-21T07:13:37.194Z,91.54
2019-03-21T07:14:37.205Z,91.75
2019-03-21T07:15:38.208Z,91.18
2019-03-21T07:16:37.165Z,91.29
2019-03-21T07:17:37.225Z,91.56
2019-03-21T07:18:37.148Z,90.79
2019-03-21T07:19:37.125Z,90.16
2019-03-21T07:20:37.117Z,88.87
2019-03-21T07:21:37.196Z,88.52
2019-03-21T07:22:38.499Z,87.65
2019-03-21T07:23:37.122Z,86.63
2019-03-21T07:24:37.088Z,85.03
2019-03-21T07:25:37.059Z,84.27
2019-03-21T07:26:37.129Z,82.67
2019-03-21T07:27:37.057Z,81.49
2019-03-21T07:28:38.637Z,80.62
2019-03-21T07:29:37.020Z,80.16
2019-03-21T07:30:37.011Z,79.41
2019-03-21T07:31:36.983Z,78.64
2019-03-21T07:32:37.041Z,77.36
2019-03-21T07:33:36.942Z,76.71
2019-03-21T07:34:37.023Z,76.50
2019-03-21T07:35:38.983Z,76.36
2019-03-21T07:36:36.936Z,75.40
2019-03-21T07:37:36.974Z,74.33
2019-03-21T07:38:36.895Z,74.12
2019-03-21T07:39:36.959Z,73.67
2019-03-21T07:40:36.889Z,72.91
2019-03-21T07:41:38.896Z,72.36
2019-03-21T07:42:36.857Z,72.67
2019-03-21T07:43:36.886Z,72.16
2019-03-21T07:44:37.153Z,72.02
2019-03-21T07:45:37.948Z,71.41
2019-03-21T07:46:36.817Z,71.26
2019-03-21T07:47:37.879Z,70.96
2019-03-21T07:48:36.789Z,70.82
2019-03-21T07:49:36.829Z,69.86
2019-03-21T07:50:37.791Z,68.70
2019-03-21T07:51:36.761Z,67.66
2019-03-21T07:52:36.791Z,68.05
2019-03-21T07:53:36.800Z,67.22
2019-03-21T07:54:36.772Z,67.84
2019-03-21T07:55:36.722Z,67.50
2019-03-21T07:56:36.703Z,67.06
2019-03-21T07:57:36.694Z,66.85
2019-03-21T07:58:37.734Z,66.61
2019-03-21T07:59:36.667Z,65.77
2019-03-21T08:00:38.727Z,65.56
2019-03-21T08:01:36.656Z,65.73
2019-03-21T08:02:37.705Z,65.22
2019-03-21T08:03:36.626Z,63.96
2019-03-21T08:04:36.707Z,61.98
2019-03-21T08:05:40.670Z,61.33
2019-03-21T08:06:36.659Z,61.10
2019-03-21T08:07:36.588Z,59.84
2019-03-21T08:08:36.588Z,59.64
2019-03-21T08:09:36.598Z,59.61
2019-03-21T08:10:36.659Z,58.69
2019-03-21T08:11:36.539Z,59.17
2019-03-21T08:12:36.510Z,59.38
2019-03-21T08:13:36.631Z,58.94
2019-03-21T08:14:36.511Z,58.40
2019-03-21T08:15:38.562Z,58.29
2019-03-21T08:16:36.482Z,57.15
2019-03-21T08:17:36.473Z,57.56
2019-03-21T08:18:36.463Z,56.20
2019-03-21T08:19:37.563Z,55.69
2019-03-21T08:20:36.454Z,54.82
2019-03-21T08:21:36.475Z,55.91
2019-03-21T08:22:36.417Z,53.55
2019-03-21T08:23:36.395Z,53.62
2019-03-21T08:24:36.476Z,53.50
2019-03-21T08:25:36.398Z,52.66
2019-03-21T08:26:36.417Z,52.45
2019-03-21T08:27:36.347Z,51.51
2019-03-21T08:28:36.340Z,51.94
2019-03-21T08:29:37.430Z,53.59
2019-03-21T08:30:36.338Z,54.49
2019-03-21T08:31:36.349Z,52.98
2019-03-21T08:32:36.300Z,53.59
2019-03-21T08:33:36.289Z,54.64
2019-03-21T08:34:36.271Z,55.58
2019-03-21T08:35:36.361Z,55.97
2019-03-21T08:36:36.242Z,54.36
2019-03-21T08:37:37.282Z,54.64
2019-03-21T08:38:36.223Z,54.33
2019-03-21T08:39:36.214Z,54.44
2019-03-21T08:40:37.225Z,54.31
2019-03-21T08:41:36.195Z,54.11
2019-03-21T08:42:37.227Z,53.57
2019-03-21T08:43:36.176Z,52.35
2019-03-21T08:44:36.155Z,52.78
2019-03-21T08:45:36.159Z,52.55
2019-03-21T08:46:36.166Z,52.68
2019-03-21T08:47:37.183Z,53.37
2019-03-21T08:48:36.220Z,52.96
2019-03-21T08:49:36.099Z,52.45
2019-03-21T08:50:36.189Z,52.43
2019-03-21T08:51:36.067Z,51.69
2019-03-21T08:52:36.079Z,50.04
2019-03-21T08:53:36.050Z,50.04
2019-03-21T08:54:36.120Z,49.63
2019-03-21T08:55:37.151Z,49.71
2019-03-21T08:56:36.019Z,49.51
2019-03-21T08:57:36.022Z,49.20
2019-03-21T08:58:35.992Z,49.61
2019-03-21T08:59:36.054Z,49.16
2019-03-21T09:00:36.064Z,48.85
2019-03-21T09:01:35.971Z,48.75
2019-03-21T09:02:36.055Z,48.42
2019-03-21T09:03:35.945Z,47.08
2019-03-21T09:04:35.996Z,46.95
2019-03-21T09:05:35.917Z,47.64
2019-03-21T09:06:35.927Z,46.10
2019-03-21T09:07:35.888Z,45.90
2019-03-21T09:08:35.969Z,45.37
2019-03-21T09:09:35.868Z,45.57
2019-03-21T09:10:35.950Z,45.67
2019-03-21T09:11:35.846Z,45.82
2019-03-21T09:12:36.859Z,47.44
2019-03-21T09:13:35.821Z,46.95
2019-03-21T09:14:35.872Z,47.24
2019-03-21T09:15:35.821Z,47.02
2019-03-21T09:16:35.785Z,45.75
2019-03-21T09:17:35.774Z,45.86
2019-03-21T09:18:35.844Z,45.12
2019-03-21T09:19:35.764Z,44.82
2019-03-21T09:20:36.135Z,45.20
2019-03-21T09:21:35.736Z,46.12
2019-03-21T09:22:36.735Z,44.80
2019-03-21T09:23:35.727Z,45.04
2019-03-21T09:24:35.756Z,45.96
2019-03-21T09:25:35.676Z,45.86
2019-03-21T09:26:35.747Z,46.04
2019-03-21T09:27:35.658Z,46.16
2019-03-21T09:28:35.729Z,45.96
2019-03-21T09:29:35.628Z,47.90
2019-03-21T09:30:35.659Z,46.28
2019-03-21T09:31:35.631Z,47.44
2019-03-21T09:32:35.611Z,47.03
2019-03-21T09:33:35.611Z,47.02
2019-03-21T09:34:35.642Z,47.54
2019-03-21T09:35:35.562Z,47.75
2019-03-21T09:36:35.625Z,47.34
2019-03-21T09:37:35.533Z,47.24
2019-03-21T09:38:35.613Z,46.26
2019-03-21T09:39:35.525Z,46.06
2019-03-21T09:40:35.557Z,45.78
2019-03-21T09:41:35.509Z,46.18
2019-03-21T09:42:36.505Z,47.70
2019-03-21T09:43:35.477Z,46.71
2019-03-21T09:44:35.507Z,46.75
2019-03-21T09:45:35.457Z,46.94
2019-03-21T09:46:35.508Z,48.02
2019-03-21T09:47:35.439Z,48.55
2019-03-21T09:48:35.429Z,48.85
2019-03-21T09:49:35.421Z,48.97
2019-03-21T09:50:35.430Z,49.84
2019-03-21T09:51:35.412Z,50.78
2019-03-21T09:52:35.464Z,52.35
2019-03-21T09:53:35.372Z,52.66
2019-03-21T09:54:35.403Z,54.28
2019-03-21T09:55:35.343Z,53.88
2019-03-21T09:56:35.384Z,54.72
2019-03-21T09:57:35.324Z,53.39
2019-03-21T09:58:35.415Z,53.19
2019-03-21T09:59:35.344Z,53.70
2019-03-21T10:00:35.286Z,53.42
2019-03-21T10:01:35.305Z,54.94
2019-03-21T10:02:35.266Z,55.63
2019-03-21T10:03:35.317Z,53.83
2019-03-21T10:04:35.228Z,54.41
2019-03-21T10:05:36.268Z,54.94
2019-03-21T10:06:35.239Z,54.54
2019-03-21T10:07:35.288Z,54.31
2019-03-21T10:08:35.200Z,54.82
2019-03-21T10:09:35.220Z,53.90
2019-03-21T10:10:35.175Z,54.31
2019-03-21T10:11:35.200Z,54.31
2019-03-21T10:12:35.151Z,55.94
2019-03-21T10:13:36.263Z,54.21
2019-03-21T10:14:35.132Z,54.11
2019-03-21T10:15:35.123Z,55.02
2019-03-21T10:16:35.121Z,55.51
2019-03-21T10:17:35.166Z,54.41
2019-03-21T10:18:35.065Z,54.00
2019-03-21T10:19:36.125Z,54.00
2019-03-21T10:20:35.066Z,53.50
2019-03-21T10:21:43.183Z,53.80
2019-03-21T10:22:36.048Z,55.02
2019-03-21T10:23:35.078Z,53.70
2019-03-21T10:24:35.028Z,55.41
2019-03-21T10:25:35.109Z,54.92
2019-03-21T10:26:34.979Z,54.18
2019-03-21T10:27:35.090Z,54.79
2019-03-21T10:28:34.961Z,53.88
2019-03-21T10:29:34.981Z,53.06
2019-03-21T10:30:34.942Z,54.90
2019-03-21T10:31:35.029Z,54.69
2019-03-21T10:32:34.933Z,54.59
2019-03-21T10:33:34.953Z,54.39
2019-03-21T10:34:34.894Z,54.69
2019-03-21T10:35:34.993Z,53.47
2019-03-21T10:36:34.865Z,54.18
2019-03-21T10:37:38.245Z,53.98
2019-03-21T10:38:34.835Z,54.39
2019-03-21T10:39:34.846Z,54.59
2019-03-21T10:40:34.826Z,54.36
2019-03-21T10:41:34.898Z,54.08
2019-03-21T10:42:34.833Z,53.57
2019-03-21T10:43:34.789Z,53.37
2019-03-21T10:44:34.779Z,53.16
2019-03-21T10:45:34.871Z,54.28
2019-03-21T10:46:37.710Z,53.98
2019-03-21T10:47:34.853Z,54.05
2019-03-21T10:48:34.721Z,52.83
2019-03-21T10:49:34.741Z,53.65
2019-03-21T10:50:34.713Z,53.55
2019-03-21T10:51:34.783Z,54.13
2019-03-21T10:52:34.703Z,52.91
2019-03-21T10:53:34.715Z,53.22
2019-03-21T10:54:34.665Z,53.52
2019-03-21T10:55:35.676Z,53.42
2019-03-21T10:56:34.645Z,53.72
2019-03-21T10:57:35.756Z,54.24
2019-03-21T10:58:34.622Z,54.03
2019-03-21T10:59:34.607Z,54.64
2019-03-21T11:00:34.597Z,53.93
2019-03-21T11:01:34.658Z,54.00
2019-03-21T11:02:34.569Z,51.97
2019-03-21T11:03:34.642Z,51.87
2019-03-21T11:04:34.540Z,53.22
2019-03-21T11:05:34.529Z,52.40
2019-03-21T11:06:34.600Z,53.09
2019-03-21T11:07:34.521Z,52.10
2019-03-21T11:08:34.588Z,52.37
2019-03-21T11:09:34.494Z,52.71
2019-03-21T11:10:34.484Z,53.22
2019-03-21T11:11:34.475Z,52.68
2019-03-21T11:12:34.505Z,53.19
2019-03-21T11:13:34.464Z,53.39
2019-03-21T11:14:34.545Z,52.08
2019-03-21T11:15:34.427Z,52.37
2019-03-21T11:16:34.487Z,52.45
2019-03-21T11:17:34.398Z,51.95
2019-03-21T11:18:36.288Z,51.87
2019-03-21T11:19:34.378Z,51.44
2019-03-21T11:20:36.399Z,51.77
2019-03-21T11:21:34.359Z,52.35
2019-03-21T11:22:34.390Z,53.06
2019-03-21T11:23:34.352Z,52.68
2019-03-21T11:24:34.432Z,52.25
2019-03-21T11:25:34.312Z,51.34
2019-03-21T11:26:34.302Z,52.96
2019-03-21T11:27:34.283Z,51.36
2019-03-21T11:28:34.343Z,51.64
2019-03-21T11:29:34.274Z,53.37
2019-03-21T11:30:34.337Z,51.95
2019-03-21T11:31:34.235Z,51.75
2019-03-21T11:32:34.225Z,50.93
2019-03-21T11:33:35.306Z,50.93
2019-03-21T11:34:34.207Z,50.83
2019-03-21T11:35:50.858Z,51.95
2019-03-21T11:36:38.602Z,51.51
2019-03-21T11:37:34.309Z,52.33
2019-03-21T11:38:34.178Z,50.60
2019-03-21T11:39:41.819Z,49.48
2019-03-21T11:40:34.145Z,50.81
2019-03-21T11:41:35.216Z,50.60
2019-03-21T11:42:34.140Z,50.50
2019-03-21T11:43:34.127Z,49.58
2019-03-21T11:44:34.092Z,52.23
2019-03-21T11:45:35.184Z,52.12
2019-03-21T11:46:34.073Z,51.82
2019-03-21T11:47:41.803Z,49.48
2019-03-21T11:48:35.084Z,50.60
2019-03-21T11:49:36.115Z,51.01
2019-03-21T11:50:34.026Z,49.58
2019-03-21T11:51:36.124Z,50.17
2019-03-21T11:52:34.006Z,48.97
2019-03-21T11:53:35.127Z,50.07
2019-03-21T11:54:36.061Z,49.36
2019-03-21T11:55:33.971Z,49.69
2019-03-21T11:56:34.132Z,49.48
2019-03-21T11:57:33.959Z,49.97
2019-03-21T11:58:41.820Z,49.69
2019-03-21T11:59:50.488Z,50.40
2019-03-21T12:00:42.624Z,52.23
2019-03-21T12:01:34.925Z,51.72
2019-03-21T12:02:35.952Z,50.37
2019-03-21T12:03:33.883Z,50.98
2019-03-21T12:04:34.003Z,51.51
2019-03-21T12:05:33.864Z,51.01
2019-03-21T12:06:33.994Z,50.40
2019-03-21T12:07:33.847Z,51.09
2019-03-21T12:08:33.936Z,50.88
2019-03-21T12:09:33.845Z,50.58
2019-03-21T12:10:33.807Z,51.29
2019-03-21T12:11:33.777Z,50.88
2019-03-21T12:12:34.908Z,51.18
2019-03-21T12:13:33.773Z,50.17
2019-03-21T12:14:35.921Z,49.36
2019-03-21T12:15:33.749Z,49.97
2019-03-21T12:16:33.749Z,49.66
2019-03-21T12:17:34.871Z,50.17
2019-03-21T12:18:33.721Z,49.64
2019-03-21T12:19:35.873Z,49.64
2019-03-21T12:20:33.722Z,49.54
2019-03-21T12:21:33.692Z,49.41
2019-03-21T12:22:33.673Z,48.50
2019-03-21T12:23:33.744Z,48.91
2019-03-21T12:24:33.663Z,48.91
2019-03-21T12:25:33.774Z,49.33
2019-03-21T12:26:33.635Z,48.83
2019-03-21T12:27:33.615Z,49.33
2019-03-21T12:28:34.717Z,49.44
2019-03-21T12:29:33.606Z,49.95
2019-03-21T12:30:33.679Z,49.11
2019-03-21T12:31:33.589Z,48.60
2019-03-21T12:32:33.559Z,49.23
2019-03-21T12:33:33.579Z,49.92
2019-03-21T12:34:33.614Z,49.33
2019-03-21T12:35:33.561Z,49.41
2019-03-21T12:36:35.583Z,49.64
2019-03-21T12:37:33.511Z,48.93
2019-03-21T12:38:33.503Z,50.68
2019-03-21T12:39:33.483Z,49.44
2019-03-21T12:40:33.554Z,50.48
2019-03-21T12:41:33.463Z,50.45
2019-03-21T12:42:33.545Z,49.41
2019-03-21T12:43:33.455Z,48.60
2019-03-21T12:44:34.491Z,49.52
2019-03-21T12:45:33.438Z,51.26
2019-03-21T12:46:33.506Z,49.84
2019-03-21T12:47:33.399Z,49.64
2019-03-21T12:48:33.448Z,49.84
2019-03-21T12:49:33.379Z,49.84
2019-03-21T12:50:35.452Z,49.84
2019-03-21T12:51:33.490Z,49.44
2019-03-21T12:52:41.363Z,50.45